Time;durP1;ratioP1;P1;durP2;ratioP2;P2;SDS_P1;SDS_P2;PMS_P1;PMS_P2;Temp;Humidity;BMP_temperature;BMP_pressure;BME280_temperature;BME280_humidity;BME280_pressure;Samples;Min_cycle;Max_cycle;Signal;HPM_P1;HPM_P2
2022/04/01 00:00:55;;;;;;;39.22;8.93;;;;;;;14.54;55.07;93402.25;5078163;28;20040;-77
2022/04/01 00:03:29;;;;;;;47.70;9.20;;;;;;;14.50;55.63;93392.66;5076874;28;20412;-77
2022/04/01 00:05:54;;;;;;;66.57;10.38;;;;;;;14.44;55.61;93383.34;5073260;28;20504;-77
2022/04/01 00:08:19;;;;;;;69.10;9.95;;;;;;;14.35;55.42;93384.00;5074668;28;20059;-77
2022/04/01 00:10:45;;;;;;;59.92;10.43;;;;;;;14.29;56.09;93382.53;5073063;28;20082;-77
2022/04/01 00:13:11;;;;;;;47.97;10.23;;;;;;;14.33;55.96;93359.22;5074806;28;20028;-78
2022/04/01 00:15:37;;;;;;;47.85;8.60;;;;;;;14.26;56.49;93377.88;5072875;28;20035;-78
2022/04/01 00:18:03;;;;;;;42.35;8.88;;;;;;;14.23;56.46;93362.78;5073831;28;20028;-78
2022/04/01 00:20:28;;;;;;;56.13;10.35;;;;;;;14.18;56.69;93370.72;5073756;28;20029;-78
2022/04/01 00:22:54;;;;;;;55.30;9.43;;;;;;;14.11;57.12;93344.16;5073868;28;20025;-78
2022/04/01 00:25:19;;;;;;;55.22;10.63;;;;;;;14.08;57.02;93344.75;5073688;28;20131;-78
2022/04/01 00:27:45;;;;;;;48.13;9.63;;;;;;;14.09;56.61;93361.97;5057202;28;20032;-78
2022/04/01 00:30:10;;;;;;;58.30;9.90;;;;;;;14.01;56.89;93365.28;5075136;28;20454;-78
2022/04/01 00:32:36;;;;;;;49.92;8.32;;;;;;;14.03;56.59;93360.53;5056680;28;20081;-78
2022/04/01 00:35:02;;;;;;;58.17;9.60;;;;;;;13.99;56.57;93370.78;5089851;28;20037;-78
2022/04/01 00:37:38;;;;;;;51.80;8.82;;;;;;;13.94;57.14;93375.31;5089938;28;20107;-78
2022/04/01 00:40:04;;;;;;;49.85;8.90;;;;;;;13.97;57.53;93367.66;5073119;28;20035;-77
2022/04/01 00:42:30;;;;;;;49.50;9.38;;;;;;;13.93;56.53;93368.53;5072860;28;20040;-78
2022/04/01 00:44:56;;;;;;;75.80;10.65;;;;;;;13.87;56.96;93359.25;5073826;28;20036;-78
2022/04/01 00:47:21;;;;;;;60.67;11.32;;;;;;;13.87;56.59;93354.78;5071652;28;20036;-78
2022/04/01 00:49:47;;;;;;;59.17;10.23;;;;;;;13.96;56.22;93341.81;5057448;28;20055;-78
2022/04/01 00:52:15;;;;;;;57.00;10.45;;;;;;;13.90;55.53;93350.81;5080337;28;20035;-78
2022/04/01 00:54:41;;;;;;;60.05;10.77;;;;;;;13.94;55.38;93333.50;5063392;28;20488;-78
2022/04/01 00:57:10;;;;;;;53.67;10.68;;;;;;;13.88;56.64;93337.28;5059558;28;20029;-78
2022/04/01 00:59:36;;;;;;;55.88;10.18;;;;;;;13.85;56.55;93330.00;5045313;23;20052;-78
2022/04/01 01:02:02;;;;;;;60.70;11.88;;;;;;;13.84;56.25;93329.25;5052582;28;20569;-77
2022/04/01 01:04:27;;;;;;;49.33;11.15;;;;;;;13.84;56.01;93334.47;5052949;28;20036;-77
2022/04/01 01:06:56;;;;;;;56.00;11.98;;;;;;;13.88;55.79;93342.50;5052612;28;20032;-78
2022/04/01 01:09:22;;;;;;;54.50;10.50;;;;;;;13.90;55.36;93337.75;5018903;28;20044;-77
2022/04/01 01:11:49;;;;;;;71.25;11.10;;;;;;;13.97;55.36;93345.97;5034571;28;20067;-77
2022/04/01 01:14:15;;;;;;;83.53;11.55;;;;;;;13.96;55.24;93367.94;5035689;28;20108;-77
2022/04/01 01:16:42;;;;;;;65.28;11.40;;;;;;;14.06;54.05;93352.88;5032304;28;20498;-78
2022/04/01 01:19:15;;;;;;;42.83;10.75;;;;;;;14.04;55.17;93355.00;5031938;28;20021;-77
2022/04/01 01:21:41;;;;;;;59.22;11.73;;;;;;;14.04;55.29;93338.56;4999726;28;20557;-77
2022/04/01 01:24:08;;;;;;;66.53;10.05;;;;;;;14.03;54.84;93347.47;5032116;28;20033;-77
2022/04/01 01:26:35;;;;;;;74.90;10.52;;;;;;;14.07;54.73;93343.19;4982545;28;20094;-77
2022/04/01 01:29:02;;;;;;;66.47;10.98;;;;;;;14.06;54.40;93346.88;5014182;28;20056;-77
2022/04/01 01:31:28;;;;;;;55.40;11.38;;;;;;;14.16;54.49;93346.72;4982229;28;20034;-78
2022/04/01 01:33:54;;;;;;;71.32;10.68;;;;;;;14.14;54.58;93354.03;5015810;28;20021;-78
2022/04/01 01:36:20;;;;;;;66.97;12.48;;;;;;;14.15;53.70;93345.13;5000256;28;20039;-78
2022/04/01 01:38:45;;;;;;;67.78;13.20;;;;;;;14.19;54.17;93350.56;5037194;28;20470;-78
2022/04/01 01:41:11;;;;;;;57.22;10.18;;;;;;;14.19;53.78;93351.34;5002215;28;20040;-78
2022/04/01 01:43:37;;;;;;;72.22;11.50;;;;;;;14.24;53.51;93348.63;5052125;28;20040;-78
2022/04/01 01:46:03;;;;;;;74.28;11.10;;;;;;;14.23;53.52;93339.25;5052765;28;20037;-77
2022/04/01 01:48:28;;;;;;;70.03;11.38;;;;;;;14.30;53.05;93344.84;5034283;28;20390;-78
2022/04/01 01:56:22;;;;;;;72.50;10.48;;;;;;;14.60;50.66;93324.44;5060968;28;20507;-78
2022/04/01 01:58:48;;;;;;;80.00;10.55;;;;;;;14.66;50.62;93323.28;5056129;28;20488;-78
2022/04/01 02:01:13;;;;;;;87.35;13.05;;;;;;;14.66;51.07;93310.22;5021424;28;20029;-78
2022/04/01 02:03:39;;;;;;;90.10;13.05;;;;;;;14.68;51.52;93310.69;5036145;28;20052;-77
2022/04/01 02:06:04;;;;;;;77.20;12.65;;;;;;;14.64;51.26;93288.78;5020617;28;20033;-78
2022/04/01 02:08:30;;;;;;;91.13;12.23;;;;;;;14.70;51.21;93279.75;5005212;28;20115;-78
2022/04/01 02:10:56;;;;;;;82.65;13.07;;;;;;;14.68;50.76;93285.28;5056247;28;20488;-78
2022/04/01 02:13:21;;;;;;;72.00;11.73;;;;;;;14.70;51.39;93282.38;5053510;28;20949;-79
2022/04/01 02:15:47;;;;;;;62.85;11.88;;;;;;;14.67;51.06;93283.75;5052620;28;20118;-78
2022/04/01 02:18:12;;;;;;;81.80;12.43;;;;;;;14.75;50.68;93265.78;5023392;28;20055;-78
2022/04/01 02:20:38;;;;;;;97.90;12.55;;;;;;;14.85;50.40;93268.19;5060052;28;20037;-78
2022/04/01 02:23:06;;;;;;;72.30;14.00;;;;;;;14.83;50.16;93244.16;5054645;28;20033;-78
2022/04/01 02:25:35;;;;;;;70.78;13.73;;;;;;;14.85;50.09;93266.34;5021059;28;20082;-78
2022/04/01 02:28:00;;;;;;;70.30;12.23;;;;;;;14.83;50.37;93255.41;5054415;28;20035;-78
2022/04/01 02:30:27;;;;;;;82.05;11.93;;;;;;;14.87;50.14;93242.50;5053644;28;20029;-78
2022/04/01 02:32:52;;;;;;;65.88;11.85;;;;;;;14.81;50.34;93226.16;5030885;28;20049;-77
2022/04/01 02:35:18;;;;;;;84.82;12.05;;;;;;;14.90;49.42;93219.13;5055090;28;20029;-77
2022/04/01 02:37:44;;;;;;;74.53;10.52;;;;;;;14.89;49.67;93201.88;5054075;28;20029;-77
2022/04/01 02:40:10;;;;;;;92.20;13.63;;;;;;;14.86;49.74;93197.25;5018417;28;20493;-77
2022/04/01 02:42:35;;;;;;;80.90;12.85;;;;;;;14.79;50.41;93186.41;5033785;28;20040;-77
2022/04/01 02:45:01;;;;;;;80.93;13.18;;;;;;;14.84;50.11;93203.84;5051813;28;20036;-78
2022/04/01 02:47:26;;;;;;;110.95;12.95;;;;;;;14.83;50.22;93200.47;5054254;28;20025;-78
2022/04/01 02:49:52;;;;;;;107.40;12.38;;;;;;;14.85;49.61;93193.06;5036097;28;20408;-78
2022/04/01 02:52:17;;;;;;;77.40;11.82;;;;;;;14.87;49.00;93200.63;5052248;28;20032;-78
2022/04/01 02:54:43;;;;;;;69.97;12.25;;;;;;;14.91;48.63;93168.31;5017965;28;20032;-77
2022/04/01 02:57:11;;;;;;;92.40;14.55;;;;;;;14.93;48.75;93176.66;5033805;28;20043;-77
2022/04/01 02:59:36;;;;;;;67.80;12.20;;;;;;;15.00;48.67;93181.47;5035110;28;20033;-78
2022/04/01 03:02:12;;;;;;;92.68;14.35;;;;;;;15.03;48.04;93180.88;5017839;28;20082;-77
2022/04/01 03:04:38;;;;;;;93.00;11.77;;;;;;;15.11;47.67;93171.50;5015933;28;20403;-78
2022/04/01 03:07:03;;;;;;;93.03;13.50;;;;;;;15.12;47.76;93188.78;5051617;28;20052;-78
2022/04/01 03:09:29;;;;;;;71.30;13.48;;;;;;;15.21;47.60;93193.00;5051424;28;20033;-78
2022/04/01 03:11:56;;;;;;;80.68;14.32;;;;;;;15.11;48.01;93192.47;5051585;28;20025;-79
2022/04/01 03:14:22;;;;;;;85.20;11.57;;;;;;;15.15;47.59;93177.72;5040117;28;20064;-78
2022/04/01 03:16:48;;;;;;;84.97;13.90;;;;;;;15.13;47.51;93185.06;5038388;28;20036;-78
2022/04/01 03:19:13;;;;;;;80.80;11.50;;;;;;;15.22;47.13;93188.53;5035135;28;20107;-78
2022/04/01 03:21:42;;;;;;;80.50;14.05;;;;;;;15.23;46.74;93195.31;5034903;28;20115;-78
2022/04/01 03:24:11;;;;;;;113.70;14.88;;;;;;;15.26;46.52;93174.53;5019054;28;20809;-79
2022/04/01 03:26:37;;;;;;;122.03;16.05;;;;;;;15.30;46.12;93206.16;5052534;28;20493;-78
2022/04/01 03:29:03;;;;;;;128.18;18.10;;;;;;;15.36;45.88;93178.75;5034172;28;20041;-78
2022/04/01 03:31:28;;;;;;;97.68;13.68;;;;;;;15.41;45.95;93186.47;5018390;28;20033;-78
2022/04/01 03:33:54;;;;;;;118.75;14.75;;;;;;;15.43;45.16;93189.56;5051649;28;20087;-78
2022/04/01 03:36:19;;;;;;;91.47;15.65;;;;;;;15.55;44.89;93170.66;5050688;28;20428;-78
2022/04/01 03:38:46;;;;;;;91.30;14.07;;;;;;;15.62;45.06;93176.28;5033956;28;20040;-78
2022/04/01 03:41:12;;;;;;;104.25;16.30;;;;;;;15.54;45.16;93196.09;5052667;28;20055;-78
2022/04/01 03:43:37;;;;;;;113.25;14.77;;;;;;;15.58;44.94;93215.38;5024953;28;20025;-78
2022/04/01 03:46:15;;;;;;;114.78;17.27;;;;;;;15.54;45.19;93180.38;5047992;28;20043;-78
2022/04/01 03:48:42;;;;;;;90.78;15.15;;;;;;;15.56;44.80;93188.69;5056491;28;20071;-78
2022/04/01 03:51:08;;;;;;;90.25;15.05;;;;;;;15.54;45.97;93169.91;5036193;28;20033;-78
2022/04/01 03:53:36;;;;;;;68.10;13.52;;;;;;;15.56;46.37;93209.66;5034780;28;20546;-78
2022/04/01 03:56:02;;;;;;;89.22;13.75;;;;;;;15.50;46.43;93194.38;5035235;28;20048;-77
2022/04/01 03:58:29;;;;;;;89.95;15.35;;;;;;;15.47;46.30;93184.50;5063366;28;20048;-78
2022/04/01 04:00:57;;;;;;;122.72;14.75;;;;;;;15.42;45.92;93182.78;5038952;28;20016;-78
2022/04/01 04:03:22;;;;;;;105.82;17.55;;;;;;;15.48;44.85;93163.25;5036634;28;20534;-78
2022/04/01 04:05:48;;;;;;;113.70;15.43;;;;;;;15.46;45.06;93170.66;5051179;28;20060;-78
2022/04/01 04:08:17;;;;;;;98.40;14.23;;;;;;;15.55;44.29;93145.25;5032796;28;20033;-78
2022/04/01 04:10:42;;;;;;;113.15;15.68;;;;;;;15.56;44.07;93162.50;5050100;28;20028;-78
2022/04/01 04:13:08;;;;;;;107.32;17.92;;;;;;;15.63;44.24;93180.47;5049286;28;20041;-78
2022/04/01 04:15:40;;;;;;;93.20;16.10;;;;;;;15.65;44.01;93170.44;5051365;28;20033;-77
2022/04/01 04:18:12;;;;;;;109.55;15.55;;;;;;;15.66;44.04;93173.84;5049544;28;20036;-78
2022/04/01 04:20:49;;;;;;;113.60;16.27;;;;;;;15.74;43.20;93141.63;5049435;28;20032;-78
2022/04/01 04:23:35;;;;;;;126.63;18.15;;;;;;;15.83;43.00;93166.81;5019150;28;20132;-78
2022/04/01 04:26:04;;;;;;;106.35;20.02;;;;;;;15.90;42.38;93140.13;5016339;28;20029;-78
2022/04/01 04:28:32;;;;;;;120.13;17.85;;;;;;;15.94;41.83;93167.28;5016109;28;20051;-78
2022/04/01 04:31:02;;;;;;;100.47;15.65;;;;;;;15.97;42.00;93182.41;5023374;28;20029;-78
2022/04/01 04:33:31;;;;;;;136.90;18.65;;;;;;;16.09;41.62;93172.09;5019105;28;20044;-78
2022/04/01 04:36:00;;;;;;;115.22;16.52;;;;;;;16.22;40.85;93175.66;5035356;28;20071;-78
2022/04/01 04:38:26;;;;;;;129.70;18.05;;;;;;;16.27;40.58;93169.50;5037392;28;20404;-78
2022/04/01 04:40:52;;;;;;;130.45;17.70;;;;;;;16.43;40.22;93189.75;5036515;28;20033;-78
2022/04/01 04:43:21;;;;;;;112.15;18.35;;;;;;;16.49;40.08;93174.63;5020436;28;20436;-78
2022/04/01 04:45:48;;;;;;;143.20;16.92;;;;;;;16.62;39.54;93184.22;5021028;28;20028;-78
2022/04/01 04:48:13;;;;;;;117.38;17.38;;;;;;;16.76;39.20;93171.75;5054187;28;20029;-78
2022/04/01 04:50:39;;;;;;;107.80;16.75;;;;;;;16.88;39.19;93181.59;5036789;28;20596;-78
2022/04/01 04:53:04;;;;;;;115.70;16.80;;;;;;;17.03;38.98;93186.38;5003954;28;20021;-78
2022/04/01 04:55:29;;;;;;;130.65;17.40;;;;;;;17.14;38.44;93170.28;5019827;28;20041;-78
2022/04/01 04:57:55;;;;;;;123.18;17.65;;;;;;;17.18;38.63;93179.84;5003338;28;20033;-78
2022/04/01 05:00:21;;;;;;;122.13;18.35;;;;;;;17.27;38.23;93170.13;5053663;28;20048;-78
2022/04/01 05:03:07;;;;;;;152.43;19.20;;;;;;;17.22;38.16;93172.13;5019903;28;20481;-78
2022/04/01 05:05:37;;;;;;;133.52;19.05;;;;;;;17.28;38.20;93192.69;5036027;28;20029;-78
2022/04/01 05:08:11;;;;;;;111.22;17.88;;;;;;;17.27;39.41;93196.38;5037208;28;20087;-78
2022/04/01 05:10:55;;;;;;;104.97;15.55;;;;;;;17.27;39.66;93183.25;5064389;28;20040;-77
2022/04/01 05:13:25;;;;;;;100.72;15.23;;;;;;;17.19;42.12;93194.53;5062673;28;20120;-78
2022/04/01 05:15:53;;;;;;;101.63;16.15;;;;;;;16.92;42.01;93189.63;5041422;28;20037;-78
2022/04/01 05:18:25;;;;;;;103.10;16.48;;;;;;;17.07;40.34;93191.75;5053810;28;20060;-78
2022/04/01 05:20:56;;;;;;;99.80;15.68;;;;;;;16.81;42.55;93189.19;5053772;28;20120;-78
2022/04/01 05:23:34;;;;;;;123.22;17.92;;;;;;;16.82;42.79;93193.34;5061050;28;20037;-78
2022/04/01 05:26:09;;;;;;;85.60;14.57;;;;;;;16.42;44.87;93192.66;5051033;28;20152;-78
2022/04/01 05:29:00;;;;;;;109.70;15.15;;;;;;;16.02;46.31;93198.00;5066262;28;20113;-79
2022/04/01 05:31:25;;;;;;;81.47;12.43;;;;;;;16.14;45.94;93208.69;5041574;28;20509;-78
2022/04/01 05:33:53;;;;;;;98.90;15.07;;;;;;;16.05;45.95;93205.25;5050542;28;20034;-79
2022/04/01 05:36:19;;;;;;;101.97;14.27;;;;;;;16.04;45.47;93187.97;5050350;28;20033;-77
2022/04/01 05:38:44;;;;;;;92.07;14.43;;;;;;;16.27;44.83;93186.03;5034185;28;20048;-78
2022/04/01 05:41:10;;;;;;;85.40;13.98;;;;;;;16.35;44.64;93205.47;5033443;28;20504;-77
2022/04/01 05:43:39;;;;;;;104.40;15.95;;;;;;;16.59;43.96;93191.91;5041603;28;20108;-77
2022/04/01 05:46:04;;;;;;;112.47;16.15;;;;;;;16.60;43.80;93189.00;5024039;28;20033;-77
2022/04/01 05:48:33;;;;;;;95.25;14.02;;;;;;;16.67;43.59;93204.31;5033970;28;20114;-78
2022/04/01 05:51:00;;;;;;;92.78;13.95;;;;;;;16.82;43.17;93184.69;5018461;28;20488;-78
2022/04/01 05:53:28;;;;;;;102.05;15.23;;;;;;;16.95;43.06;93183.78;5050712;28;20037;-77
2022/04/01 05:55:54;;;;;;;81.90;14.77;;;;;;;16.99;42.77;93195.19;5019174;28;20040;-81
2022/04/01 05:58:19;;;;;;;103.85;14.98;;;;;;;16.79;43.13;93192.13;5026174;28;20025;-78
2022/04/01 06:00:55;;;;;;;97.28;19.70;;;;;;;17.01;42.87;93187.75;5036171;28;20025;-78
2022/04/01 06:03:53;;;;;;;106.97;17.27;;;;;;;17.43;41.43;93193.25;5036876;28;20036;-78
2022/04/01 06:06:21;;;;;;;102.93;15.27;;;;;;;17.72;41.42;93193.34;5037795;28;20040;-78
2022/04/01 06:08:57;;;;;;;86.20;13.95;;;;;;;18.05;40.36;93203.25;5051775;28;20079;-78
2022/04/01 06:11:47;;;;;;;95.75;14.57;;;;;;;18.59;39.92;93197.06;5033456;28;20043;-78
2022/04/01 06:14:37;;;;;;;82.25;13.32;;;;;;;19.13;38.64;93189.22;5038268;28;20035;-78
2022/04/01 06:17:08;;;;;;;86.35;13.48;;;;;;;19.17;38.52;93195.34;5050335;28;20041;-78
2022/04/01 06:19:44;;;;;;;88.07;13.95;;;;;;;19.74;37.56;93192.03;5052353;28;20029;-80
2022/04/01 06:22:17;;;;;;;114.32;14.85;;;;;;;20.30;36.70;93208.09;5050259;28;20025;-77
2022/04/01 06:25:10;;;;;;;105.07;13.50;;;;;;;20.70;35.51;93215.34;5039267;28;20036;-79
2022/04/01 06:27:41;;;;;;;95.80;14.63;;;;;;;20.91;35.18;93189.50;5041039;28;20041;-78
2022/04/01 06:30:11;;;;;;;89.25;13.75;;;;;;;19.73;37.61;93200.25;5018209;28;20476;-78
2022/04/01 06:32:56;;;;;;;74.68;15.45;;;;;;;19.66;37.76;93200.03;5035759;28;20036;-78
2022/04/01 06:35:43;;;;;;;99.80;15.43;;;;;;;19.61;38.31;93201.00;5039250;28;20497;-78
2022/04/01 06:38:11;;;;;;;98.93;13.68;;;;;;;19.89;37.70;93200.41;5022286;28;20033;-80
2022/04/01 06:40:52;;;;;;;108.85;15.25;;;;;;;20.24;37.53;93225.25;5021077;28;20124;-78
2022/04/01 06:43:21;;;;;;;80.20;14.43;;;;;;;20.57;36.64;93200.59;5036098;28;20041;-78
2022/04/01 06:45:46;;;;;;;81.75;15.25;;;;;;;20.97;35.90;93188.16;5001269;28;20071;-78
2022/04/01 06:48:12;;;;;;;108.82;14.60;;;;;;;21.48;34.97;93211.47;5041367;28;20032;-77
2022/04/01 06:50:37;;;;;;;83.80;15.77;;;;;;;21.93;34.21;93224.28;5050889;28;20033;-78
2022/04/01 06:53:03;;;;;;;131.55;15.48;;;;;;;22.23;33.48;93239.78;5041859;28;20055;-78
2022/04/01 06:55:28;;;;;;;101.78;16.58;;;;;;;22.23;33.37;93218.59;5013529;28;20485;-78
2022/04/01 06:57:54;;;;;;;115.47;16.85;;;;;;;22.33;33.42;93207.50;5015078;28;20041;-78
2022/04/01 07:00:19;;;;;;;105.53;16.10;;;;;;;22.53;33.28;93198.47;5015585;28;20128;-78
2022/04/01 07:02:46;;;;;;;91.75;15.63;;;;;;;22.52;32.78;93220.78;5014424;28;20033;-78
2022/04/01 07:05:12;;;;;;;91.90;18.80;;;;;;;22.55;32.38;93193.59;5012753;28;20477;-78
2022/04/01 07:07:38;;;;;;;99.05;16.88;;;;;;;22.72;32.32;93219.72;4996752;28;20469;-77
2022/04/01 07:10:04;;;;;;;99.57;15.82;;;;;;;22.95;31.90;93222.50;5029495;28;20072;-77
2022/04/01 07:12:30;;;;;;;108.30;16.15;;;;;;;23.25;31.75;93230.66;5032972;28;20033;-78
2022/04/01 07:14:56;;;;;;;102.40;14.88;;;;;;;23.57;31.33;93217.25;5050633;28;20025;-78
2022/04/01 07:17:21;;;;;;;99.55;16.05;;;;;;;23.83;30.51;93206.72;5054124;28;20482;-78
2022/04/01 07:19:47;;;;;;;95.32;16.15;;;;;;;24.03;30.40;93215.41;5036566;28;20106;-78
2022/04/01 07:22:13;;;;;;;120.97;16.75;;;;;;;24.31;30.18;93209.81;5050891;28;20040;-78
2022/04/01 07:24:39;;;;;;;108.35;16.10;;;;;;;24.54;29.51;93210.53;5033784;28;20428;-77
2022/04/01 07:27:04;;;;;;;109.90;16.33;;;;;;;24.73;29.31;93211.53;5016498;28;20072;-79
2022/04/01 07:29:30;;;;;;;110.93;15.68;;;;;;;24.83;29.13;93208.25;5018693;28;20033;-78
2022/04/01 07:34:41;;;;;;;103.90;17.02;;;;;;;23.94;29.75;93191.75;5049953;28;20035;-76
2022/04/01 07:37:06;;;;;;;104.07;17.45;;;;;;;23.75;30.33;93194.44;5033299;28;20566;-78
2022/04/01 07:39:32;;;;;;;80.68;14.40;;;;;;;23.92;29.88;93182.63;5051196;28;20025;-78
2022/04/01 07:41:57;;;;;;;79.05;15.25;;;;;;;23.95;28.90;93182.66;5033290;28;20029;-78
2022/04/01 07:44:23;;;;;;;113.60;16.98;;;;;;;24.04;28.98;93193.03;5033397;28;20098;-77
2022/04/01 07:46:52;;;;;;;104.53;16.33;;;;;;;24.26;28.86;93164.94;5051130;28;20037;-78
2022/04/01 07:49:17;;;;;;;107.82;16.98;;;;;;;24.30;28.70;93189.69;5034184;28;20033;-78
2022/04/01 07:51:43;;;;;;;124.45;16.65;;;;;;;24.37;28.54;93179.16;5033919;28;20025;-78
2022/04/01 07:54:13;;;;;;;109.78;16.27;;;;;;;24.52;28.26;93188.09;5034209;28;20029;-79
2022/04/01 07:56:40;;;;;;;103.45;16.70;;;;;;;24.52;28.11;93188.84;5034671;28;20025;-77
2022/04/01 07:59:06;;;;;;;112.13;16.50;;;;;;;24.68;27.90;93174.63;5041927;28;20044;-79
2022/04/01 08:01:32;;;;;;;97.10;16.52;;;;;;;24.89;27.94;93180.22;5059920;28;20091;-76
2022/04/01 08:03:58;;;;;;;102.30;16.95;;;;;;;24.86;27.26;93175.63;5037503;28;20037;-77
2022/04/01 08:06:23;;;;;;;109.07;16.63;;;;;;;25.06;26.91;93200.25;5054532;28;20036;-76
2022/04/01 08:08:49;;;;;;;125.30;16.35;;;;;;;25.09;25.83;93163.03;5020924;28;20135;-77
2022/04/01 08:11:14;;;;;;;116.28;16.65;;;;;;;24.97;25.47;93183.75;5038336;28;20063;-78
2022/04/01 08:13:40;;;;;;;111.38;17.65;;;;;;;24.66;25.62;93193.59;5054305;28;20079;-77
2022/04/01 08:16:05;;;;;;;115.85;16.50;;;;;;;24.40;25.77;93175.78;5054325;28;20095;-77
2022/04/01 08:18:31;;;;;;;162.32;17.67;;;;;;;24.24;25.70;93177.78;5003928;28;20048;-74
2022/04/01 08:20:56;;;;;;;111.25;15.90;;;;;;;24.32;25.58;93179.47;5040050;28;20033;-78
2022/04/01 08:23:22;;;;;;;133.82;18.13;;;;;;;24.09;26.25;93168.09;5040647;28;20031;-78
2022/04/01 08:25:48;;;;;;;96.40;13.95;;;;;;;24.05;26.28;93169.91;5037772;28;20043;-79
2022/04/01 08:28:13;;;;;;;126.05;16.70;;;;;;;23.99;26.46;93166.78;5055485;28;20484;-77
2022/04/01 08:30:40;;;;;;;127.07;16.35;;;;;;;23.84;26.80;93147.22;5035076;28;20025;-77
2022/04/01 08:33:05;;;;;;;124.25;16.23;;;;;;;23.38;27.04;93127.06;5036789;28;20090;-77
2022/04/01 08:35:31;;;;;;;91.53;14.52;;;;;;;23.13;27.09;93151.28;5021524;28;20024;-79
2022/04/01 08:37:58;;;;;;;80.93;15.82;;;;;;;22.81;28.15;93126.00;5027453;28;20111;-75
2022/04/01 08:40:24;;;;;;;99.97;16.23;;;;;;;22.46;29.30;93124.19;5051372;28;20066;-78
2022/04/01 08:42:49;;;;;;;96.13;15.30;;;;;;;22.54;29.01;93123.19;5010624;28;20021;-77
2022/04/01 08:45:19;;;;;;;93.75;15.85;;;;;;;22.50;29.66;93118.94;5019940;28;20021;-78
2022/04/01 08:47:45;;;;;;;87.90;14.73;;;;;;;22.36;30.12;93111.47;5035085;28;20036;-75
2022/04/01 08:50:10;;;;;;;107.80;15.23;;;;;;;22.13;29.83;93095.47;5049641;28;20059;-77
2022/04/01 08:52:36;;;;;;;122.32;15.80;;;;;;;22.06;30.52;93122.53;5033217;28;20028;-75
2022/04/01 08:55:12;;;;;;;93.28;14.30;;;;;;;21.94;30.80;93103.31;5014856;28;20446;-77
2022/04/01 08:57:39;;;;;;;108.85;15.48;;;;;;;21.86;30.69;93087.28;5016262;28;20082;-77
2022/04/01 09:00:29;;;;;;;91.90;14.50;;;;;;;21.75;31.39;93067.00;5053628;28;20036;-79
2022/04/01 09:02:59;;;;;;;93.93;16.88;;;;;;;21.61;32.30;93077.25;5037555;28;20045;-78
2022/04/01 09:05:25;;;;;;;97.70;13.90;;;;;;;21.71;32.44;93050.28;5036773;28;20037;-78
2022/04/01 09:08:23;;;;;;;122.25;17.08;;;;;;;21.33;32.67;93051.69;5035087;28;20021;-77
2022/04/01 09:11:04;;;;;;;108.43;15.07;;;;;;;21.22;33.41;93043.44;5030032;28;20131;-77
2022/04/01 09:13:31;;;;;;;107.80;15.50;;;;;;;20.95;33.24;93060.13;5033696;28;20024;-77
2022/04/01 09:15:57;;;;;;;98.00;15.15;;;;;;;21.08;33.72;93040.47;5017534;28;20045;-80
2022/04/01 09:18:52;;;;;;;85.97;13.77;;;;;;;21.15;33.01;93045.94;5009847;28;20525;-77
2022/04/01 09:21:17;;;;;;;94.75;15.23;;;;;;;21.28;33.48;93050.03;5029466;28;20098;-78
2022/04/01 09:23:47;;;;;;;107.25;15.32;;;;;;;21.12;32.84;93019.41;5052158;28;20032;-77
2022/04/01 09:26:12;;;;;;;110.35;14.55;;;;;;;21.27;32.64;93032.63;5035079;28;20029;-78
2022/04/01 09:28:39;;;;;;;102.15;15.50;;;;;;;21.33;32.62;93027.88;5035634;28;20394;-77
2022/04/01 09:31:15;;;;;;;97.53;15.10;;;;;;;21.31;32.93;93034.59;5024095;28;20038;-77
2022/04/01 09:33:43;;;;;;;81.15;14.70;;;;;;;21.28;32.85;93033.41;5018858;28;20029;-77
2022/04/01 09:36:38;;;;;;;108.15;14.82;;;;;;;21.10;33.37;92993.31;5039298;28;20643;-77
2022/04/01 09:39:13;;;;;;;78.13;14.00;;;;;;;21.16;33.42;93009.69;5019305;28;20839;-77
2022/04/01 09:41:41;;;;;;;109.50;18.33;;;;;;;20.95;33.74;93000.13;5015237;28;20084;-77
2022/04/01 09:44:09;;;;;;;93.72;13.20;;;;;;;20.98;33.40;93041.72;5032439;28;20033;-77
2022/04/01 09:46:39;;;;;;;112.55;15.30;;;;;;;21.18;32.98;93031.25;5029975;28;20051;-76
2022/04/01 09:49:04;;;;;;;98.45;14.65;;;;;;;21.20;32.68;92999.97;5014640;28;20540;-77
2022/04/01 09:51:31;;;;;;;107.97;16.00;;;;;;;21.44;32.51;93005.09;5031644;28;20048;-77
2022/04/01 09:54:02;;;;;;;84.22;14.75;;;;;;;21.27;32.82;93010.72;5029493;28;20037;-79
2022/04/01 09:56:43;;;;;;;89.65;13.10;;;;;;;21.50;32.46;93013.53;5054198;28;20033;-79
2022/04/01 09:59:11;;;;;;;83.43;13.13;;;;;;;21.44;32.69;93044.75;5035034;28;20040;-77
2022/04/01 10:01:37;;;;;;;96.85;13.45;;;;;;;21.62;32.64;93041.75;5017244;28;20094;-77
2022/04/01 10:04:03;;;;;;;82.97;12.43;;;;;;;21.68;32.41;93056.25;5016720;28;20033;-77
2022/04/01 10:06:29;;;;;;;103.28;14.63;;;;;;;21.73;32.30;93040.88;5033077;28;20075;-77
2022/04/01 10:08:55;;;;;;;92.43;14.50;;;;;;;21.79;32.26;93049.31;5016405;28;20067;-77
2022/04/01 10:11:20;;;;;;;113.38;15.15;;;;;;;21.72;31.84;93052.56;5032585;28;20041;-78
2022/04/01 10:13:46;;;;;;;98.00;14.52;;;;;;;21.71;32.09;93064.28;5032453;28;20044;-77
2022/04/01 10:16:12;;;;;;;99.70;13.10;;;;;;;21.74;31.76;93046.94;5031966;28;20067;-77
2022/04/01 10:18:41;;;;;;;83.07;13.65;;;;;;;21.68;32.00;93041.16;4999732;28;20504;-77
2022/04/01 10:21:07;;;;;;;77.53;13.07;;;;;;;21.63;32.18;93040.63;5013218;28;20039;-77
2022/04/01 10:23:33;;;;;;;96.75;15.02;;;;;;;21.61;31.77;93061.38;5038368;28;20029;-77
2022/04/01 10:26:09;;;;;;;92.65;14.23;;;;;;;21.57;32.25;93040.91;5016121;28;20033;-77
2022/04/01 10:28:34;;;;;;;68.82;12.63;;;;;;;21.41;31.85;93011.06;5032417;28;20068;-77
2022/04/01 10:31:01;;;;;;;110.43;14.15;;;;;;;21.36;32.07;93040.41;5015924;28;20064;-77
2022/04/01 10:33:36;;;;;;;81.38;12.88;;;;;;;21.40;31.78;93022.75;5031627;28;20029;-77
2022/04/01 10:36:14;;;;;;;84.95;13.73;;;;;;;21.52;32.01;93030.59;5016005;28;20060;-77
2022/04/01 10:38:40;;;;;;;86.03;13.13;;;;;;;21.56;32.21;93023.50;5014453;28;20032;-77
2022/04/01 10:41:07;;;;;;;103.80;14.55;;;;;;;21.56;31.55;93007.63;5013799;28;20033;-77
2022/04/01 10:43:35;;;;;;;91.57;11.32;;;;;;;21.54;31.86;93004.56;5049701;28;20021;-77
2022/04/01 10:46:05;;;;;;;80.30;12.38;;;;;;;21.52;31.82;93014.72;5015285;28;20036;-78
2022/04/01 10:54:22;;;;;;;79.18;13.63;;;;;;;21.21;32.82;92990.94;5035339;28;20040;-76
2022/04/01 10:56:53;;;;;;;73.80;12.18;;;;;;;21.21;32.54;92996.22;5021595;28;20112;-77
2022/04/01 10:59:22;;;;;;;73.20;12.23;;;;;;;21.28;31.46;92991.09;5054000;28;20033;-77
2022/04/01 11:01:53;;;;;;;90.05;12.25;;;;;;;21.34;31.31;92973.91;4999549;28;20038;-78
2022/04/01 11:04:19;;;;;;;85.20;11.07;;;;;;;21.36;30.88;92961.09;5036067;28;20033;-78
2022/04/01 11:07:07;;;;;;;103.97;12.45;;;;;;;21.39;30.92;92965.69;5035587;28;20121;-78
2022/04/01 11:09:36;;;;;;;75.82;12.07;;;;;;;21.46;30.83;92986.22;5016261;28;20037;-78
2022/04/01 11:12:21;;;;;;;81.93;10.85;;;;;;;21.63;30.13;92953.34;5031770;28;20512;-78
2022/04/01 11:17:28;;;;;;;66.45;10.02;;;;;;;21.47;30.48;92972.66;5030942;28;20091;-77
2022/04/01 11:20:05;;;;;;;76.97;10.90;;;;;;;21.40;30.61;92972.50;5030853;28;20095;-78
2022/04/01 11:22:47;;;;;;;73.45;11.95;;;;;;;21.34;30.88;93008.25;5016049;28;20116;-78
2022/04/01 11:25:24;;;;;;;78.22;10.77;;;;;;;21.33;31.24;93008.59;5029831;28;20473;-78
2022/04/01 11:28:02;;;;;;;68.85;11.32;;;;;;;21.15;31.52;93024.78;5013745;28;20061;-78
2022/04/01 11:30:31;;;;;;;96.78;12.75;;;;;;;21.02;32.00;93038.41;5013334;28;20631;-78
2022/04/01 11:32:58;;;;;;;70.60;11.45;;;;;;;20.86;32.55;93025.94;5051162;28;20056;-78
2022/04/01 11:35:26;;;;;;;79.00;13.70;;;;;;;20.65;33.90;93038.59;5025697;28;20037;-77
2022/04/01 11:37:51;;;;;;;68.60;13.10;;;;;;;20.44;34.99;93030.09;5016872;28;20442;-78